createdAt,value
2023-09-18T00:03:46.729Z,11.90
2023-09-18T00:07:58.589Z,11.20
2023-09-18T00:12:11.005Z,10.73
2023-09-18T00:16:22.871Z,11.82
2023-09-18T00:20:34.759Z,11.40
2023-09-18T00:24:49.139Z,11.90
2023-09-18T00:29:00.944Z,11.18
2023-09-18T00:33:12.764Z,12.02
2023-09-18T00:37:24.713Z,11.70
2023-09-18T00:41:37.494Z,12.23
2023-09-18T00:45:50.233Z,11.32
2023-09-18T00:50:02.809Z,11.43
2023-09-18T00:54:17.878Z,11.15
2023-09-18T00:58:30.346Z,11.45
2023-09-18T01:02:43.031Z,12.13
2023-09-18T01:06:57.553Z,11.50
2023-09-18T01:11:42.057Z,10.75
2023-09-18T01:15:59.062Z,11.48
2023-09-18T01:20:12.725Z,11.50
2023-09-18T01:24:24.697Z,11.18
2023-09-18T01:28:36.497Z,11.38
2023-09-18T01:32:49.477Z,12.27
2023-09-18T01:37:01.908Z,11.65
2023-09-18T01:41:13.975Z,11.90
2023-09-18T01:45:25.887Z,12.43
2023-09-18T01:49:39.138Z,11.65
2023-09-18T01:53:54.382Z,11.73
2023-09-18T01:58:06.189Z,11.77
2023-09-18T02:02:25.686Z,12.43
2023-09-18T02:06:48.279Z,11.98
2023-09-18T02:11:00.287Z,12.95
2023-09-18T02:15:12.298Z,12.68
2023-09-18T02:19:24.087Z,12.13
2023-09-18T02:23:35.906Z,13.05
2023-09-18T02:27:47.826Z,12.07
2023-09-18T02:31:59.672Z,12.07
2023-09-18T02:36:11.592Z,12.05
2023-09-18T02:40:23.521Z,11.73
2023-09-18T02:44:35.357Z,11.68
2023-09-18T02:48:47.748Z,11.95
2023-09-18T02:52:59.754Z,12.07
2023-09-18T02:57:12.609Z,11.93
2023-09-18T03:01:24.411Z,12.05
2023-09-18T03:05:36.336Z,11.82
2023-09-18T03:09:48.437Z,12.07
2023-09-18T03:14:00.641Z,11.13
2023-09-18T03:18:12.501Z,11.73
2023-09-18T03:22:25.035Z,11.40
2023-09-18T03:26:38.575Z,10.38
2023-09-18T03:30:51.229Z,11.43
2023-09-18T03:35:06.243Z,11.77
2023-09-18T03:39:18.108Z,11.88
2023-09-18T03:43:30.168Z,10.98
2023-09-18T03:47:43.351Z,10.90
2023-09-18T03:51:56.098Z,9.65
2023-09-18T03:56:07.979Z,10.18
2023-09-18T04:00:19.872Z,10.30
2023-09-18T04:04:31.660Z,10.93
2023-09-18T04:08:43.511Z,11.05
2023-09-18T04:12:55.266Z,10.75
2023-09-18T04:17:07.059Z,10.50
2023-09-18T04:21:18.926Z,10.80
2023-09-18T04:25:32.369Z,10.18
2023-09-18T04:29:44.181Z,10.07
2023-09-18T04:33:57.315Z,10.95
2023-09-18T04:38:12.199Z,9.80
2023-09-18T04:42:24.335Z,9.35
2023-09-18T04:46:36.895Z,9.80
2023-09-18T04:50:49.782Z,8.27
2023-09-18T04:55:01.790Z,7.95
2023-09-18T04:59:13.666Z,7.57
2023-09-18T05:03:28.149Z,7.07
2023-09-18T05:07:40.320Z,7.55
2023-09-18T05:11:52.506Z,6.88
2023-09-18T05:16:04.838Z,7.32
2023-09-18T05:20:17.945Z,7.05
2023-09-18T05:24:30.571Z,7.43
2023-09-18T05:28:42.317Z,7.35
2023-09-18T05:32:54.165Z,7.88
2023-09-18T05:37:06.041Z,7.57
2023-09-18T05:41:17.885Z,7.45
2023-09-18T05:45:30.293Z,7.82
2023-09-18T05:49:42.052Z,8.07
2023-09-18T05:53:54.146Z,8.63
2023-09-18T05:58:08.094Z,8.32
2023-09-18T06:02:22.043Z,8.15
2023-09-18T06:06:33.902Z,8.63
2023-09-18T06:10:46.521Z,8.23
2023-09-18T06:14:58.278Z,8.68
2023-09-18T06:19:10.058Z,8.75
2023-09-18T06:23:21.803Z,8.30
2023-09-18T06:27:37.832Z,8.15
2023-09-18T06:31:51.077Z,8.45
2023-09-18T06:36:03.279Z,7.90
2023-09-18T06:40:15.192Z,7.70
2023-09-18T06:44:27.099Z,7.95
2023-09-18T06:48:38.933Z,6.70
2023-09-18T06:52:50.963Z,7.55
2023-09-18T06:57:02.810Z,6.05
2023-09-18T07:01:16.396Z,6.80
2023-09-18T07:05:28.169Z,5.85
2023-09-18T07:09:51.051Z,5.43
2023-09-18T07:14:13.193Z,5.03
2023-09-18T07:18:25.065Z,4.18
2023-09-18T07:22:36.939Z,4.00
2023-09-18T07:26:49.550Z,4.00
2023-09-18T07:31:06.705Z,3.30
2023-09-18T07:35:18.511Z,3.15
2023-09-18T07:39:31.048Z,2.95
2023-09-18T07:43:43.029Z,2.78
2023-09-18T07:47:54.879Z,2.90
2023-09-18T07:52:06.873Z,2.42
2023-09-18T07:56:20.205Z,2.75
2023-09-18T08:00:34.334Z,2.80
2023-09-18T08:04:46.094Z,3.20
2023-09-18T08:08:57.839Z,2.75
2023-09-18T08:13:10.211Z,1.98
2023-09-18T08:17:22.057Z,2.50
2023-09-18T08:21:34.224Z,2.88
2023-09-18T08:25:46.005Z,2.45
2023-09-18T08:29:57.776Z,2.30
2023-09-18T08:34:09.559Z,2.65
2023-09-18T08:38:21.356Z,2.20
2023-09-18T08:42:34.581Z,2.00
2023-09-18T08:46:46.441Z,2.03
2023-09-18T08:50:58.594Z,2.00
2023-09-18T08:55:11.055Z,1.92
2023-09-18T08:59:23.464Z,1.92
2023-09-18T09:03:35.623Z,1.85
2023-09-18T09:07:47.616Z,2.00
2023-09-18T09:11:59.458Z,1.80
2023-09-18T09:16:13.232Z,2.20
2023-09-18T09:20:25.198Z,1.85
2023-09-18T09:24:42.648Z,2.08
2023-09-18T09:28:54.779Z,2.45
2023-09-18T09:33:09.361Z,2.03
2023-09-18T09:37:32.218Z,2.13
2023-09-18T09:41:47.653Z,1.70
2023-09-18T09:46:03.441Z,1.50
2023-09-18T09:50:19.749Z,1.77
2023-09-18T09:54:41.964Z,1.58
2023-09-18T09:59:09.079Z,1.60
2023-09-18T10:03:24.783Z,1.58
2023-09-18T10:07:38.687Z,1.85
2023-09-18T10:11:53.957Z,1.65
2023-09-18T10:16:08.163Z,1.77
2023-09-18T10:20:23.297Z,1.50
2023-09-18T10:24:38.138Z,1.63
2023-09-18T10:28:54.300Z,1.98
2023-09-18T10:33:08.810Z,1.67
2023-09-18T10:37:21.701Z,1.98
2023-09-18T10:41:33.485Z,2.20
2023-09-18T10:45:45.845Z,2.45
2023-09-18T10:49:57.624Z,2.40
2023-09-18T10:54:16.299Z,2.05
2023-09-18T10:58:28.339Z,2.20
2023-09-18T11:02:41.916Z,2.33
2023-09-18T11:06:56.800Z,2.22
2023-09-18T11:11:15.750Z,2.38
2023-09-18T11:15:33.589Z,2.65
2023-09-18T11:19:46.030Z,2.17
2023-09-18T11:24:02.131Z,2.15
2023-09-18T11:28:18.682Z,2.17
2023-09-18T11:32:41.318Z,2.65
2023-09-18T11:36:53.878Z,2.00
2023-09-18T11:41:26.576Z,2.70
2023-09-18T11:45:39.888Z,2.53
2023-09-18T11:49:56.196Z,3.22
2023-09-18T11:54:09.468Z,2.50
2023-09-18T11:58:24.373Z,2.45
2023-09-18T12:02:37.498Z,2.70
2023-09-18T12:06:49.570Z,2.50
2023-09-18T12:11:06.576Z,2.75
2023-09-18T12:15:20.661Z,2.72
2023-09-18T12:19:32.829Z,2.65
2023-09-18T12:23:46.913Z,2.50
2023-09-18T12:28:01.320Z,2.70
2023-09-18T12:32:14.530Z,2.17
2023-09-18T12:36:26.437Z,2.42
2023-09-18T12:40:38.116Z,2.25
2023-09-18T12:44:51.903Z,2.53
2023-09-18T12:49:36.156Z,2.30
2023-09-18T12:53:47.917Z,2.45
2023-09-18T12:58:00.268Z,2.05
2023-09-18T13:02:15.022Z,1.92
2023-09-18T13:06:27.047Z,2.13
2023-09-18T13:10:53.908Z,2.13
2023-09-18T13:15:10.151Z,2.13
2023-09-18T13:19:22.478Z,2.25
2023-09-18T13:23:34.313Z,2.20
2023-09-18T13:27:46.534Z,2.13
2023-09-18T13:31:58.357Z,2.10
2023-09-18T13:36:10.096Z,2.22
2023-09-18T13:40:23.331Z,2.00
2023-09-18T13:44:36.364Z,1.95
2023-09-18T13:48:48.875Z,2.22
2023-09-18T13:53:03.847Z,2.13
2023-09-18T13:57:15.957Z,2.08
2023-09-18T14:01:28.131Z,2.00
2023-09-18T14:05:40.120Z,2.28
2023-09-18T14:09:51.976Z,2.00
2023-09-18T14:14:03.762Z,1.90
2023-09-18T14:18:15.541Z,1.63
2023-09-18T14:22:27.800Z,1.60
2023-09-18T14:26:42.479Z,1.70
2023-09-18T14:30:54.357Z,1.95
2023-09-18T14:35:09.122Z,2.03
2023-09-18T14:39:21.122Z,2.00
2023-09-18T14:43:32.844Z,2.13
2023-09-18T14:47:44.830Z,1.90
2023-09-18T14:51:56.891Z,1.85
2023-09-18T14:56:08.951Z,2.20
2023-09-18T15:00:26.493Z,1.73
2023-09-18T15:04:38.406Z,1.90
2023-09-18T15:08:50.838Z,1.83
2023-09-18T15:13:02.660Z,1.73
2023-09-18T15:17:14.965Z,1.83
2023-09-18T15:21:26.957Z,1.95
2023-09-18T15:25:39.159Z,1.77
2023-09-18T15:29:51.027Z,2.00
2023-09-18T15:34:05.845Z,1.90
2023-09-18T15:38:17.669Z,1.20
2023-09-18T15:42:29.392Z,0.85
2023-09-18T15:46:41.339Z,1.30
2023-09-18T15:50:53.086Z,1.02
2023-09-18T15:55:07.311Z,1.00
2023-09-18T15:59:19.836Z,0.90
2023-09-18T16:03:31.703Z,1.30
2023-09-18T16:07:46.037Z,0.98
2023-09-18T16:11:57.831Z,1.20
2023-09-18T16:16:09.759Z,1.00
2023-09-18T16:20:22.037Z,1.10
2023-09-18T16:24:33.988Z,1.40
2023-09-18T16:28:48.188Z,0.93
2023-09-18T16:33:02.921Z,0.90
2023-09-18T16:37:16.339Z,1.00
2023-09-18T16:41:29.149Z,1.15
2023-09-18T16:45:43.647Z,0.90
2023-09-18T16:49:55.572Z,1.23
2023-09-18T16:54:07.581Z,1.40
2023-09-18T16:58:19.382Z,1.30
2023-09-18T17:02:31.369Z,1.40
2023-09-18T17:06:43.763Z,1.48
2023-09-18T17:10:55.577Z,1.20
2023-09-18T17:15:09.749Z,1.40
2023-09-18T17:19:21.489Z,1.40
2023-09-18T17:23:33.236Z,1.00
2023-09-18T17:27:45.006Z,1.35
2023-09-18T17:31:56.958Z,1.45
2023-09-18T17:36:12.944Z,1.65
2023-09-18T17:40:24.786Z,1.63
2023-09-18T17:44:36.851Z,1.40
2023-09-18T17:48:48.767Z,1.52
2023-09-18T17:53:00.850Z,1.90
2023-09-18T17:57:12.741Z,1.70
2023-09-18T18:01:24.590Z,1.77
2023-09-18T18:05:36.623Z,1.90
2023-09-18T18:09:48.598Z,2.08
2023-09-18T18:14:00.250Z,1.92
2023-09-18T18:18:14.151Z,1.98
2023-09-18T18:22:26.432Z,2.05
2023-09-18T18:26:38.162Z,2.05
2023-09-18T18:30:53.175Z,2.13
2023-09-18T18:35:05.232Z,1.80
2023-09-18T18:39:17.212Z,2.08
2023-09-18T18:43:30.735Z,1.98
2023-09-18T18:47:43.771Z,2.10
2023-09-18T18:51:56.289Z,2.40
2023-09-18T18:56:08.381Z,2.15
2023-09-18T19:00:20.323Z,2.47
2023-09-18T19:04:32.730Z,1.92
2023-09-18T19:08:45.968Z,2.35
2023-09-18T19:12:58.054Z,2.47
2023-09-18T19:17:09.795Z,1.90
2023-09-18T19:21:21.564Z,1.98
2023-09-18T19:25:33.204Z,2.15
2023-09-18T19:29:47.183Z,2.20
2023-09-18T19:38:17.970Z,2.40
2023-09-18T19:42:29.706Z,2.08
2023-09-18T19:46:41.977Z,2.00
2023-09-18T19:50:58.570Z,2.20
2023-09-18T19:55:10.420Z,2.10
2023-09-18T19:59:22.148Z,2.50
2023-09-18T20:03:34.354Z,2.33
2023-09-18T20:07:46.905Z,1.80
2023-09-18T20:12:00.565Z,2.53
2023-09-18T20:16:12.507Z,2.15
2023-09-18T20:20:27.243Z,1.90
2023-09-18T20:24:39.090Z,2.38
2023-09-18T20:28:50.905Z,2.08
2023-09-18T20:33:04.810Z,2.20
2023-09-18T20:37:20.791Z,2.00
2023-09-18T20:41:33.584Z,1.83
2023-09-18T20:45:46.026Z,2.35
2023-09-18T20:49:57.833Z,2.30
2023-09-18T20:54:11.672Z,1.80
2023-09-18T20:58:23.520Z,1.75
2023-09-18T21:02:35.338Z,2.22
2023-09-18T21:06:50.310Z,2.15
2023-09-18T21:11:02.080Z,2.33
2023-09-18T21:15:14.910Z,2.20
2023-09-18T21:19:26.773Z,2.53
2023-09-18T21:23:39.093Z,2.60
2023-09-18T21:27:51.293Z,2.38
2023-09-18T21:32:04.650Z,2.38
2023-09-18T21:36:25.029Z,2.35
2023-09-18T21:40:36.756Z,2.10
2023-09-18T21:44:48.650Z,2.70
2023-09-18T21:49:00.398Z,2.78
2023-09-18T21:53:12.119Z,2.60
2023-09-18T21:57:23.841Z,2.58
2023-09-18T22:01:36.392Z,2.40
2023-09-18T22:05:48.444Z,2.55
2023-09-18T22:10:00.211Z,2.10
2023-09-18T22:14:13.160Z,2.97
2023-09-18T22:18:25.005Z,2.50
2023-09-18T22:22:37.141Z,2.75
2023-09-18T22:26:48.979Z,2.63
2023-09-18T22:31:00.909Z,2.63
2023-09-18T22:35:12.792Z,2.63
2023-09-18T22:39:33.659Z,2.83
2023-09-18T22:44:27.124Z,2.97
2023-09-18T22:49:17.505Z,2.33
2023-09-18T22:53:29.653Z,2.55
2023-09-18T22:57:54.084Z,1.60
2023-09-18T23:02:06.828Z,1.95
2023-09-18T23:06:18.710Z,2.05
2023-09-18T23:10:30.570Z,1.50
2023-09-18T23:14:42.234Z,1.17
2023-09-18T23:18:53.951Z,1.90
2023-09-18T23:23:05.707Z,2.40
2023-09-18T23:27:17.941Z,1.73
2023-09-18T23:31:31.336Z,1.95
2023-09-18T23:35:44.358Z,1.45
2023-09-18T23:39:59.382Z,1.30
2023-09-18T23:44:15.414Z,1.52
2023-09-18T23:48:27.171Z,1.48
2023-09-18T23:52:39.087Z,1.45
2023-09-18T23:56:52.196Z,1.67
